sensor_id;sensor_type;location;lat;lon;timestamp;noise_LAeq;noise_LA_min;noise_LA_max;noise_LA01;noise_LA95
43512;Laerm;34054;52.100;5.116;2023-07-31T00:00:24;32.68;29.42;44.66;;
43512;Laerm;34054;52.100;5.116;2023-07-31T00:00:56;32.77;29.79;47.02;;
43512;Laerm;34054;52.100;5.116;2023-07-31T00:01:27;31.66;29.05;37.96;;
43512;Laerm;34054;52.100;5.116;2023-07-31T00:01:59;31.90;29.28;47.88;;
43512;Laerm;34054;52.100;5.116;2023-07-31T00:02:30;32.25;29.03;45.25;;
43512;Laerm;34054;52.100;5.116;2023-07-31T00:03:01;33.37;29.94;42.11;;
43512;Laerm;34054;52.100;5.116;2023-07-31T00:03:33;31.56;28.97;36.67;;
43512;Laerm;34054;52.100;5.116;2023-07-31T00:04:07;31.52;29.18;36.28;;
43512;Laerm;34054;52.100;5.116;2023-07-31T00:04:38;32.20;29.18;43.43;;
43512;Laerm;34054;52.100;5.116;2023-07-31T00:05:09;31.65;29.28;39.80;;
43512;Laerm;34054;52.100;5.116;2023-07-31T00:05:40;31.60;29.01;39.24;;
43512;Laerm;34054;52.100;5.116;2023-07-31T00:06:11;32.04;29.61;41.36;;
43512;Laerm;34054;52.100;5.116;2023-07-31T00:06:44;31.88;29.26;40.57;;
43512;Laerm;34054;52.100;5.116;2023-07-31T00:07:15;33.13;29.78;43.69;;
43512;Laerm;34054;52.100;5.116;2023-07-31T00:07:46;31.63;28.79;48.99;;
43512;Laerm;34054;52.100;5.116;2023-07-31T00:08:17;32.07;29.40;41.50;;
43512;Laerm;34054;52.100;5.116;2023-07-31T00:08:49;32.62;29.27;55.67;;
43512;Laerm;34054;52.100;5.116;2023-07-31T00:09:21;31.94;29.45;44.55;;
43512;Laerm;34054;52.100;5.116;2023-07-31T00:09:52;31.99;28.82;48.33;;
43512;Laerm;34054;52.100;5.116;2023-07-31T00:10:24;31.69;28.95;41.40;;
43512;Laerm;34054;52.100;5.116;2023-07-31T00:10:56;31.67;28.93;37.75;;
43512;Laerm;34054;52.100;5.116;2023-07-31T00:11:27;31.25;28.66;41.43;;
43512;Laerm;34054;52.100;5.116;2023-07-31T00:11:59;32.20;28.94;51.79;;
43512;Laerm;34054;52.100;5.116;2023-07-31T00:12:30;31.67;29.04;42.49;;
43512;Laerm;34054;52.100;5.116;2023-07-31T00:13:02;31.27;28.91;45.14;;
43512;Laerm;34054;52.100;5.116;2023-07-31T00:13:33;31.17;28.70;38.10;;
43512;Laerm;34054;52.100;5.116;2023-07-31T00:14:05;32.03;28.67;49.23;;
43512;Laerm;34054;52.100;5.116;2023-07-31T00:14:36;31.59;29.04;38.34;;
43512;Laerm;34054;52.100;5.116;2023-07-31T00:15:09;31.60;28.61;43.96;;
43512;Laerm;34054;52.100;5.116;2023-07-31T00:15:40;31.73;28.53;40.68;;
43512;Laerm;34054;52.100;5.116;2023-07-31T00:16:11;32.38;29.87;47.24;;
43512;Laerm;34054;52.100;5.116;2023-07-31T00:16:43;31.38;28.65;45.48;;
43512;Laerm;34054;52.100;5.116;2023-07-31T00:17:16;31.06;28.76;35.31;;
43512;Laerm;34054;52.100;5.116;2023-07-31T00:17:47;31.10;28.83;36.17;;
43512;Laerm;34054;52.100;5.116;2023-07-31T00:18:19;31.17;28.73;42.87;;
43512;Laerm;34054;52.100;5.116;2023-07-31T00:18:50;32.07;28.79;40.67;;
43512;Laerm;34054;52.100;5.116;2023-07-31T00:19:23;31.00;28.68;37.75;;
43512;Laerm;34054;52.100;5.116;2023-07-31T00:19:55;31.08;28.73;40.26;;
43512;Laerm;34054;52.100;5.116;2023-07-31T00:20:26;31.36;29.18;37.58;;
43512;Laerm;34054;52.100;5.116;2023-07-31T00:20:57;32.04;29.55;37.73;;
43512;Laerm;34054;52.100;5.116;2023-07-31T00:21:29;31.82;29.34;44.20;;
43512;Laerm;34054;52.100;5.116;2023-07-31T00:22:00;32.28;29.48;36.89;;
43512;Laerm;34054;52.100;5.116;2023-07-31T00:22:31;31.92;30.23;34.27;;
43512;Laerm;34054;52.100;5.116;2023-07-31T00:23:03;31.89;29.55;37.81;;
43512;Laerm;34054;52.100;5.116;2023-07-31T00:23:35;31.27;29.13;36.24;;
43512;Laerm;34054;52.100;5.116;2023-07-31T00:24:06;31.72;29.12;50.25;;
43512;Laerm;34054;52.100;5.116;2023-07-31T00:24:37;30.86;28.49;37.48;;
43512;Laerm;34054;52.100;5.116;2023-07-31T00:25:08;31.29;28.67;45.11;;
43512;Laerm;34054;52.100;5.116;2023-07-31T00:25:41;30.74;28.30;34.55;;
43512;Laerm;34054;52.100;5.116;2023-07-31T00:26:12;30.94;28.61;39.12;;
43512;Laerm;34054;52.100;5.116;2023-07-31T00:26:43;30.80;28.59;36.04;;
43512;Laerm;34054;52.100;5.116;2023-07-31T00:27:15;30.80;28.49;35.65;;
43512;Laerm;34054;52.100;5.116;2023-07-31T00:27:47;31.02;28.36;35.07;;
43512;Laerm;34054;52.100;5.116;2023-07-31T00:28:18;30.80;28.42;40.09;;
43512;Laerm;34054;52.100;5.116;2023-07-31T00:28:49;31.08;28.74;35.39;;
43512;Laerm;34054;52.100;5.116;2023-07-31T00:29:20;31.20;28.50;39.86;;
43512;Laerm;34054;52.100;5.116;2023-07-31T00:29:53;30.57;28.39;37.72;;
43512;Laerm;34054;52.100;5.116;2023-07-31T00:30:24;30.78;28.23;46.65;;
43512;Laerm;34054;52.100;5.116;2023-07-31T00:30:57;30.59;28.04;35.81;;
43512;Laerm;34054;52.100;5.116;2023-07-31T00:31:28;30.73;28.30;35.02;;
43512;Laerm;34054;52.100;5.116;2023-07-31T00:32:00;30.66;28.47;35.39;;
43512;Laerm;34054;52.100;5.116;2023-07-31T00:32:32;30.78;28.62;38.22;;
43512;Laerm;34054;52.100;5.116;2023-07-31T00:33:03;30.73;28.42;35.25;;
43512;Laerm;34054;52.100;5.116;2023-07-31T00:33:35;30.70;28.48;32.87;;
43512;Laerm;34054;52.100;5.116;2023-07-31T00:34:06;30.78;28.70;35.14;;
43512;Laerm;34054;52.100;5.116;2023-07-31T00:34:40;31.08;28.72;39.48;;
43512;Laerm;34054;52.100;5.116;2023-07-31T00:35:11;32.57;29.01;37.25;;
43512;Laerm;34054;52.100;5.116;2023-07-31T00:35:42;32.82;30.05;39.12;;
43512;Laerm;34054;52.100;5.116;2023-07-31T00:36:13;32.11;30.26;38.17;;
43512;Laerm;34054;52.100;5.116;2023-07-31T00:36:46;32.34;29.53;36.88;;
43512;Laerm;34054;52.100;5.116;2023-07-31T00:37:17;33.72;31.28;38.17;;
43512;Laerm;34054;52.100;5.116;2023-07-31T00:37:48;35.01;32.86;37.85;;
43512;Laerm;34054;52.100;5.116;2023-07-31T00:38:20;37.48;34.01;45.80;;
43512;Laerm;34054;52.100;5.116;2023-07-31T00:38:51;35.67;33.65;43.83;;
43512;Laerm;34054;52.100;5.116;2023-07-31T00:39:23;36.78;34.50;40.99;;
43512;Laerm;34054;52.100;5.116;2023-07-31T00:39:54;37.70;34.91;52.16;;
43512;Laerm;34054;52.100;5.116;2023-07-31T00:40:26;37.08;34.51;44.77;;
43512;Laerm;34054;52.100;5.116;2023-07-31T00:40:57;37.61;33.66;57.81;;
43512;Laerm;34054;52.100;5.116;2023-07-31T00:41:28;36.31;33.45;47.53;;
43512;Laerm;34054;52.100;5.116;2023-07-31T00:42:00;35.14;32.91;52.76;;
43512;Laerm;34054;52.100;5.116;2023-07-31T00:42:32;34.65;31.79;47.31;;
43512;Laerm;34054;52.100;5.116;2023-07-31T00:43:03;33.70;30.97;45.26;;
43512;Laerm;34054;52.100;5.116;2023-07-31T00:43:35;33.66;30.73;48.16;;
43512;Laerm;34054;52.100;5.116;2023-07-31T00:44:07;32.22;30.00;41.48;;
43512;Laerm;34054;52.100;5.116;2023-07-31T00:44:38;33.00;29.68;42.59;;
43512;Laerm;34054;52.100;5.116;2023-07-31T00:45:09;32.41;29.96;40.26;;
43512;Laerm;34054;52.100;5.116;2023-07-31T00:45:41;32.78;29.88;50.70;;
43512;Laerm;34054;52.100;5.116;2023-07-31T00:46:13;34.89;31.57;50.00;;
43512;Laerm;34054;52.100;5.116;2023-07-31T00:46:44;34.97;31.05;46.62;;
43512;Laerm;34054;52.100;5.116;2023-07-31T00:47:15;34.28;30.04;41.12;;
43512;Laerm;34054;52.100;5.116;2023-07-31T00:47:47;32.86;30.29;43.39;;
43512;Laerm;34054;52.100;5.116;2023-07-31T00:48:19;33.91;31.11;42.48;;
43512;Laerm;34054;52.100;5.116;2023-07-31T00:48:50;33.71;30.85;50.30;;
43512;Laerm;34054;52.100;5.116;2023-07-31T00:49:22;33.02;30.61;43.96;;
43512;Laerm;34054;52.100;5.116;2023-07-31T00:49:55;33.79;31.17;45.40;;
43512;Laerm;34054;52.100;5.116;2023-07-31T00:50:27;33.64;31.37;45.46;;
43512;Laerm;34054;52.100;5.116;2023-07-31T00:50:59;36.22;31.72;49.74;;
43512;Laerm;34054;52.100;5.116;2023-07-31T00:51:31;34.98;32.88;42.22;;
43512;Laerm;34054;52.100;5.116;2023-07-31T00:52:03;33.19;30.36;48.77;;
43512;Laerm;34054;52.100;5.116;2023-07-31T00:52:36;32.37;29.99;39.04;;
43512;Laerm;34054;52.100;5.116;2023-07-31T00:53:07;32.53;29.87;46.54;;
43512;Laerm;34054;52.100;5.116;2023-07-31T00:53:39;33.29;29.64;53.93;;
43512;Laerm;34054;52.100;5.116;2023-07-31T00:54:11;32.30;29.71;44.31;;
43512;Laerm;34054;52.100;5.116;2023-07-31T00:54:43;33.14;30.02;50.60;;
43512;Laerm;34054;52.100;5.116;2023-07-31T00:55:14;32.86;29.24;50.81;;
43512;Laerm;34054;52.100;5.116;2023-07-31T00:55:46;32.15;29.53;44.24;;
43512;Laerm;34054;52.100;5.116;2023-07-31T00:56:17;33.50;30.75;45.39;;
43512;Laerm;34054;52.100;5.116;2023-07-31T00:56:50;32.95;29.73;43.88;;
43512;Laerm;34054;52.100;5.116;2023-07-31T00:57:23;32.14;29.42;43.26;;
43512;Laerm;34054;52.100;5.116;2023-07-31T00:57:55;31.57;29.14;39.52;;
43512;Laerm;34054;52.100;5.116;2023-07-31T00:58:27;31.55;29.07;42.52;;
43512;Laerm;34054;52.100;5.116;2023-07-31T00:58:59;31.32;29.10;36.25;;
43512;Laerm;34054;52.100;5.116;2023-07-31T00:59:30;31.41;29.13;44.62;;
43512;Laerm;34054;52.100;5.116;2023-07-31T01:00:02;31.31;28.78;39.82;;
43512;Laerm;34054;52.100;5.116;2023-07-31T01:00:34;31.31;28.64;37.93;;
43512;Laerm;34054;52.100;5.116;2023-07-31T01:01:06;31.20;28.59;41.35;;
43512;Laerm;34054;52.100;5.116;2023-07-31T01:01:37;31.06;28.63;37.20;;
43512;Laerm;34054;52.100;5.116;2023-07-31T01:02:09;31.09;28.38;40.80;;
43512;Laerm;34054;52.100;5.116;2023-07-31T01:02:41;31.11;28.25;40.42;;
43512;Laerm;34054;52.100;5.116;2023-07-31T01:03:13;33.84;28.32;56.87;;
43512;Laerm;34054;52.100;5.116;2023-07-31T01:03:44;34.88;33.05;40.78;;
43512;Laerm;34054;52.100;5.116;2023-07-31T01:04:16;35.48;33.46;43.44;;
43512;Laerm;34054;52.100;5.116;2023-07-31T01:04:48;34.99;32.18;47.08;;
43512;Laerm;34054;52.100;5.116;2023-07-31T01:05:25;32.69;29.71;48.13;;
43512;Laerm;34054;52.100;5.116;2023-07-31T01:06:09;31.74;29.24;45.64;;
43512;Laerm;34054;52.100;5.116;2023-07-31T01:06:50;32.69;29.35;43.66;;
43512;Laerm;34054;52.100;5.116;2023-07-31T01:07:31;31.31;28.62;43.10;;
43512;Laerm;34054;52.100;5.116;2023-07-31T01:08:15;31.11;28.71;44.17;;
43512;Laerm;34054;52.100;5.116;2023-07-31T01:08:48;30.64;28.79;37.66;;
43512;Laerm;34054;52.100;5.116;2023-07-31T01:09:29;30.87;28.84;36.96;;
43512;Laerm;34054;52.100;5.116;2023-07-31T01:10:08;31.20;28.72;44.19;;
43512;Laerm;34054;52.100;5.116;2023-07-31T01:10:46;32.07;28.79;48.71;;
43512;Laerm;34054;52.100;5.116;2023-07-31T01:11:22;31.51;28.92;37.35;;
43512;Laerm;34054;52.100;5.116;2023-07-31T01:11:57;31.40;28.94;40.85;;
43512;Laerm;34054;52.100;5.116;2023-07-31T01:12:31;30.84;28.81;36.78;;
43512;Laerm;34054;52.100;5.116;2023-07-31T01:13:03;30.82;28.51;34.89;;
43512;Laerm;34054;52.100;5.116;2023-07-31T01:13:36;30.82;28.44;35.23;;
43512;Laerm;34054;52.100;5.116;2023-07-31T01:14:07;31.71;28.75;47.24;;
43512;Laerm;34054;52.100;5.116;2023-07-31T01:14:38;30.82;28.73;35.16;;
43512;Laerm;34054;52.100;5.116;2023-07-31T01:15:10;31.02;28.74;39.79;;
43512;Laerm;34054;52.100;5.116;2023-07-31T01:15:42;30.72;28.36;38.14;;
43512;Laerm;34054;52.100;5.116;2023-07-31T01:16:14;31.04;28.78;37.01;;
43512;Laerm;34054;52.100;5.116;2023-07-31T01:16:45;31.57;28.87;46.32;;
43512;Laerm;34054;52.100;5.116;2023-07-31T01:17:16;31.51;28.72;40.57;;
43512;Laerm;34054;52.100;5.116;2023-07-31T01:17:47;31.18;28.79;40.27;;
43512;Laerm;34054;52.100;5.116;2023-07-31T01:18:19;30.83;28.66;34.13;;
43512;Laerm;34054;52.100;5.116;2023-07-31T01:18:51;31.17;28.80;43.51;;
43512;Laerm;34054;52.100;5.116;2023-07-31T01:19:24;30.77;28.68;35.02;;
43512;Laerm;34054;52.100;5.116;2023-07-31T01:19:59;30.81;28.45;39.77;;
43512;Laerm;34054;52.100;5.116;2023-07-31T01:20:35;30.83;28.43;36.63;;
43512;Laerm;34054;52.100;5.116;2023-07-31T01:21:23;31.01;28.45;43.97;;
43512;Laerm;34054;52.100;5.116;2023-07-31T01:22:14;30.72;28.60;37.81;;
43512;Laerm;34054;52.100;5.116;2023-07-31T01:23:13;31.29;28.52;50.15;;
43512;Laerm;34054;52.100;5.116;2023-07-31T01:24:05;30.50;28.50;38.82;;
43512;Laerm;34054;52.100;5.116;2023-07-31T01:24:48;30.90;28.72;38.08;;
43512;Laerm;34054;52.100;5.116;2023-07-31T01:25:46;30.95;28.42;42.93;;
43512;Laerm;34054;52.100;5.116;2023-07-31T01:26:21;30.96;28.08;39.21;;
43512;Laerm;34054;52.100;5.116;2023-07-31T01:26:56;30.64;28.23;33.86;;
43512;Laerm;34054;52.100;5.116;2023-07-31T01:27:30;30.92;28.55;44.53;;
43512;Laerm;34054;52.100;5.116;2023-07-31T01:28:07;39.04;28.49;66.90;;
43512;Laerm;34054;52.100;5.116;2023-07-31T01:28:50;31.70;28.53;43.54;;
43512;Laerm;34054;52.100;5.116;2023-07-31T01:29:32;31.07;28.52;52.80;;
43512;Laerm;34054;52.100;5.116;2023-07-31T01:30:11;31.28;28.43;38.85;;
43512;Laerm;34054;52.100;5.116;2023-07-31T01:30:48;30.64;28.46;33.45;;
43512;Laerm;34054;52.100;5.116;2023-07-31T01:31:21;31.00;28.38;39.51;;
43512;Laerm;34054;52.100;5.116;2023-07-31T01:31:54;30.77;28.28;38.05;;
43512;Laerm;34054;52.100;5.116;2023-07-31T01:32:28;30.85;28.44;34.59;;
43512;Laerm;34054;52.100;5.116;2023-07-31T01:33:00;30.79;28.69;39.17;;
43512;Laerm;34054;52.100;5.116;2023-07-31T01:33:35;30.52;28.28;35.10;;
43512;Laerm;34054;52.100;5.116;2023-07-31T01:34:09;30.63;28.51;38.81;;
43512;Laerm;34054;52.100;5.116;2023-07-31T01:34:41;30.73;28.68;35.33;;
43512;Laerm;34054;52.100;5.116;2023-07-31T01:35:13;30.92;28.49;36.11;;
43512;Laerm;34054;52.100;5.116;2023-07-31T01:35:46;30.65;28.29;35.81;;
43512;Laerm;34054;52.100;5.116;2023-07-31T01:36:20;30.85;28.62;39.44;;
43512;Laerm;34054;52.100;5.116;2023-07-31T01:36:52;30.94;28.01;36.48;;
43512;Laerm;34054;52.100;5.116;2023-07-31T01:37:28;30.62;28.36;39.90;;
43512;Laerm;34054;52.100;5.116;2023-07-31T01:37:59;30.63;28.33;34.41;;
43512;Laerm;34054;52.100;5.116;2023-07-31T01:38:32;30.69;28.26;35.52;;
43512;Laerm;34054;52.100;5.116;2023-07-31T01:39:03;31.00;28.79;36.76;;
43512;Laerm;34054;52.100;5.116;2023-07-31T01:39:34;30.56;28.45;33.63;;
43512;Laerm;34054;52.100;5.116;2023-07-31T01:40:06;30.50;28.45;33.99;;
43512;Laerm;34054;52.100;5.116;2023-07-31T01:40:41;31.67;28.58;45.36;;
43512;Laerm;34054;52.100;5.116;2023-07-31T01:41:16;30.59;28.29;34.04;;
43512;Laerm;34054;52.100;5.116;2023-07-31T01:41:47;30.54;28.40;34.51;;
43512;Laerm;34054;52.100;5.116;2023-07-31T01:42:19;30.70;28.40;36.37;;
43512;Laerm;34054;52.100;5.116;2023-07-31T01:42:51;30.76;28.47;40.39;;
43512;Laerm;34054;52.100;5.116;2023-07-31T01:43:22;30.54;28.33;33.80;;
43512;Laerm;34054;52.100;5.116;2023-07-31T01:43:54;30.95;28.18;36.76;;
43512;Laerm;34054;52.100;5.116;2023-07-31T01:44:26;30.73;28.72;33.89;;
43512;Laerm;34054;52.100;5.116;2023-07-31T01:44:58;31.19;28.15;44.63;;
43512;Laerm;34054;52.100;5.116;2023-07-31T01:45:29;30.73;28.54;37.91;;
43512;Laerm;34054;52.100;5.116;2023-07-31T01:46:00;30.70;28.55;37.31;;
43512;Laerm;34054;52.100;5.116;2023-07-31T01:46:32;30.66;28.30;36.41;;
43512;Laerm;34054;52.100;5.116;2023-07-31T01:47:04;30.79;28.96;35.79;;
43512;Laerm;34054;52.100;5.116;2023-07-31T01:47:35;30.57;28.49;37.34;;
43512;Laerm;34054;52.100;5.116;2023-07-31T01:48:06;30.58;28.29;34.36;;
43512;Laerm;34054;52.100;5.116;2023-07-31T01:48:39;30.76;28.37;34.29;;
43512;Laerm;34054;52.100;5.116;2023-07-31T01:49:10;31.02;28.80;36.28;;
43512;Laerm;34054;52.100;5.116;2023-07-31T01:49:41;31.38;28.98;38.59;;
43512;Laerm;34054;52.100;5.116;2023-07-31T01:50:12;34.50;29.72;48.19;;
43512;Laerm;34054;52.100;5.116;2023-07-31T01:50:45;33.04;30.06;45.45;;
43512;Laerm;34054;52.100;5.116;2023-07-31T01:51:16;31.30;28.59;47.15;;
43512;Laerm;34054;52.100;5.116;2023-07-31T01:51:47;30.93;28.63;33.90;;
43512;Laerm;34054;52.100;5.116;2023-07-31T01:52:19;31.96;29.35;38.85;;
43512;Laerm;34054;52.100;5.116;2023-07-31T01:52:50;31.69;29.25;42.71;;
43512;Laerm;34054;52.100;5.116;2023-07-31T01:53:21;31.38;29.25;38.93;;
43512;Laerm;34054;52.100;5.116;2023-07-31T01:53:53;32.23;29.07;41.29;;
43512;Laerm;34054;52.100;5.116;2023-07-31T01:54:25;31.11;29.07;33.88;;
43512;Laerm;34054;52.100;5.116;2023-07-31T01:54:56;31.47;28.75;42.61;;
43512;Laerm;34054;52.100;5.116;2023-07-31T01:55:27;30.64;28.25;35.29;;
43512;Laerm;34054;52.100;5.116;2023-07-31T01:55:58;31.04;28.55;34.78;;
43512;Laerm;34054;52.100;5.116;2023-07-31T01:56:32;31.57;29.07;41.98;;
43512;Laerm;34054;52.100;5.116;2023-07-31T01:57:04;33.97;28.16;51.31;;
43512;Laerm;34054;52.100;5.116;2023-07-31T01:57:36;30.66;28.74;38.81;;
43512;Laerm;34054;52.100;5.116;2023-07-31T01:58:09;30.71;28.51;41.24;;
43512;Laerm;34054;52.100;5.116;2023-07-31T01:58:40;30.77;28.66;36.32;;
43512;Laerm;34054;52.100;5.116;2023-07-31T01:59:11;30.70;28.55;40.09;;
43512;Laerm;34054;52.100;5.116;2023-07-31T01:59:42;30.49;28.22;33.74;;
43512;Laerm;34054;52.100;5.116;2023-07-31T02:00:15;31.27;29.03;35.41;;
43512;Laerm;34054;52.100;5.116;2023-07-31T02:00:46;31.22;28.83;35.32;;
43512;Laerm;34054;52.100;5.116;2023-07-31T02:01:17;32.34;29.10;46.10;;
43512;Laerm;34054;52.100;5.116;2023-07-31T02:01:49;30.54;28.51;35.33;;
43512;Laerm;34054;52.100;5.116;2023-07-31T02:02:21;30.82;28.48;36.00;;
43512;Laerm;34054;52.100;5.116;2023-07-31T02:02:53;30.57;28.17;36.02;;
43512;Laerm;34054;52.100;5.116;2023-07-31T02:03:25;30.46;28.47;35.22;;
43512;Laerm;34054;52.100;5.116;2023-07-31T02:03:57;30.54;28.45;34.19;;
43512;Laerm;34054;52.100;5.116;2023-07-31T02:04:28;30.63;28.26;37.74;;
43512;Laerm;34054;52.100;5.116;2023-07-31T02:04:59;30.74;28.76;35.16;;
43512;Laerm;34054;52.100;5.116;2023-07-31T02:05:31;30.66;28.37;35.45;;
43512;Laerm;34054;52.100;5.116;2023-07-31T02:06:03;31.27;28.39;41.60;;
43512;Laerm;34054;52.100;5.116;2023-07-31T02:06:34;30.37;28.15;32.55;;
43512;Laerm;34054;52.100;5.116;2023-07-31T02:07:05;30.63;28.25;40.97;;
43512;Laerm;34054;52.100;5.116;2023-07-31T02:07:37;30.42;27.90;32.70;;
43512;Laerm;34054;52.100;5.116;2023-07-31T02:08:09;30.85;28.21;49.95;;
43512;Laerm;34054;52.100;5.116;2023-07-31T02:08:40;30.65;28.23;36.63;;
43512;Laerm;34054;52.100;5.116;2023-07-31T02:09:11;30.39;28.34;32.06;;
43512;Laerm;34054;52.100;5.116;2023-07-31T02:09:42;30.38;28.17;32.87;;
43512;Laerm;34054;52.100;5.116;2023-07-31T02:10:15;30.36;28.23;35.30;;
43512;Laerm;34054;52.100;5.116;2023-07-31T02:10:46;30.49;28.29;33.05;;
43512;Laerm;34054;52.100;5.116;2023-07-31T02:11:17;30.60;28.57;32.50;;
43512;Laerm;34054;52.100;5.116;2023-07-31T02:11:50;30.77;28.31;35.20;;
43512;Laerm;34054;52.100;5.116;2023-07-31T02:12:22;30.58;28.34;33.65;;
43512;Laerm;34054;52.100;5.116;2023-07-31T02:12:53;30.50;28.14;35.42;;
43512;Laerm;34054;52.100;5.116;2023-07-31T02:13:24;30.51;28.17;39.53;;
43512;Laerm;34054;52.100;5.116;2023-07-31T02:13:57;30.36;28.34;32.26;;
43512;Laerm;34054;52.100;5.116;2023-07-31T02:14:28;30.40;28.20;33.78;;
43512;Laerm;34054;52.100;5.116;2023-07-31T02:14:59;30.42;28.52;34.75;;
43512;Laerm;34054;52.100;5.116;2023-07-31T02:15:30;31.05;28.08;42.13;;
43512;Laerm;34054;52.100;5.116;2023-07-31T02:16:03;30.34;28.15;36.82;;
43512;Laerm;34054;52.100;5.116;2023-07-31T02:16:34;30.34;28.09;33.12;;
43512;Laerm;34054;52.100;5.116;2023-07-31T02:17:06;30.33;28.17;32.04;;
43512;Laerm;34054;52.100;5.116;2023-07-31T02:17:37;30.32;28.31;32.79;;
43512;Laerm;34054;52.100;5.116;2023-07-31T02:18:09;30.29;28.18;32.75;;
43512;Laerm;34054;52.100;5.116;2023-07-31T02:18:40;30.30;28.19;33.70;;
43512;Laerm;34054;52.100;5.116;2023-07-31T02:19:11;31.21;28.24;48.30;;
43512;Laerm;34054;52.100;5.116;2023-07-31T02:19:43;30.26;28.29;32.27;;
43512;Laerm;34054;52.100;5.116;2023-07-31T02:20:15;30.44;28.05;39.63;;
43512;Laerm;34054;52.100;5.116;2023-07-31T02:20:49;30.20;28.07;33.69;;
43512;Laerm;34054;52.100;5.116;2023-07-31T02:21:20;30.53;28.36;33.44;;
43512;Laerm;34054;52.100;5.116;2023-07-31T02:21:51;30.61;28.28;41.79;;
43512;Laerm;34054;52.100;5.116;2023-07-31T02:22:24;31.75;28.39;49.56;;
43512;Laerm;34054;52.100;5.116;2023-07-31T02:22:55;30.57;28.42;32.60;;
43512;Laerm;34054;52.100;5.116;2023-07-31T02:23:26;30.41;28.51;33.39;;
43512;Laerm;34054;52.100;5.116;2023-07-31T02:23:57;30.68;28.54;38.82;;
43512;Laerm;34054;52.100;5.116;2023-07-31T02:24:29;30.44;28.16;35.79;;
43512;Laerm;34054;52.100;5.116;2023-07-31T02:25:03;30.31;28.08;32.74;;
43512;Laerm;34054;52.100;5.116;2023-07-31T02:25:34;30.34;28.33;34.91;;
43512;Laerm;34054;52.100;5.116;2023-07-31T02:26:05;30.34;28.41;32.26;;
43512;Laerm;34054;52.100;5.116;2023-07-31T02:26:37;30.34;28.32;34.82;;
43512;Laerm;34054;52.100;5.116;2023-07-31T02:27:10;30.33;28.19;35.52;;
43512;Laerm;34054;52.100;5.116;2023-07-31T02:27:41;30.60;28.35;34.01;;
43512;Laerm;34054;52.100;5.116;2023-07-31T02:28:12;30.81;28.51;36.21;;
43512;Laerm;34054;52.100;5.116;2023-07-31T02:28:43;30.39;28.32;33.07;;
43512;Laerm;34054;52.100;5.116;2023-07-31T02:29:16;30.20;27.81;32.37;;
43512;Laerm;34054;52.100;5.116;2023-07-31T02:29:47;30.34;27.82;34.19;;
43512;Laerm;34054;52.100;5.116;2023-07-31T02:30:18;30.54;28.28;37.55;;
43512;Laerm;34054;52.100;5.116;2023-07-31T02:30:50;30.30;28.11;33.03;;
43512;Laerm;34054;52.100;5.116;2023-07-31T02:31:21;30.28;28.08;32.09;;
43512;Laerm;34054;52.100;5.116;2023-07-31T02:31:54;30.63;28.02;43.39;;
43512;Laerm;34054;52.100;5.116;2023-07-31T02:32:25;30.49;28.22;36.73;;
43512;Laerm;34054;52.100;5.116;2023-07-31T02:32:56;30.28;28.23;32.09;;
43512;Laerm;34054;52.100;5.116;2023-07-31T02:33:27;30.37;28.35;34.93;;
43512;Laerm;34054;52.100;5.116;2023-07-31T02:33:58;30.42;28.06;32.22;;
43512;Laerm;34054;52.100;5.116;2023-07-31T02:34:31;30.45;28.61;33.29;;
43512;Laerm;34054;52.100;5.116;2023-07-31T02:35:02;30.30;28.45;32.29;;
43512;Laerm;34054;52.100;5.116;2023-07-31T02:35:33;30.34;28.14;34.68;;
43512;Laerm;34054;52.100;5.116;2023-07-31T02:36:05;30.44;28.39;36.34;;
43512;Laerm;34054;52.100;5.116;2023-07-31T02:36:36;30.30;28.29;37.04;;
43512;Laerm;34054;52.100;5.116;2023-07-31T02:37:08;30.33;28.12;38.57;;
43512;Laerm;34054;52.100;5.116;2023-07-31T02:37:39;30.42;28.08;32.84;;
43512;Laerm;34054;52.100;5.116;2023-07-31T02:38:10;30.37;28.36;39.25;;
43512;Laerm;34054;52.100;5.116;2023-07-31T02:38:42;30.30;28.22;33.41;;
43512;Laerm;34054;52.100;5.116;2023-07-31T02:39:14;30.29;28.12;32.52;;
43512;Laerm;34054;52.100;5.116;2023-07-31T02:39:45;30.31;28.43;36.76;;
43512;Laerm;34054;52.100;5.116;2023-07-31T02:40:16;30.33;28.38;31.93;;
43512;Laerm;34054;52.100;5.116;2023-07-31T02:40:48;30.24;28.24;31.81;;
43512;Laerm;34054;52.100;5.116;2023-07-31T02:41:20;30.36;28.11;33.70;;
43512;Laerm;34054;52.100;5.116;2023-07-31T02:41:51;30.16;28.03;36.34;;
43512;Laerm;34054;52.100;5.116;2023-07-31T02:42:24;30.14;28.04;31.67;;
43512;Laerm;34054;52.100;5.116;2023-07-31T02:42:55;30.26;28.28;34.95;;
43512;Laerm;34054;52.100;5.116;2023-07-31T02:43:27;30.16;28.27;32.00;;
43512;Laerm;34054;52.100;5.116;2023-07-31T02:43:58;30.52;28.08;33.94;;
43512;Laerm;34054;52.100;5.116;2023-07-31T02:44:30;30.27;27.95;32.06;;
43512;Laerm;34054;52.100;5.116;2023-07-31T02:45:02;30.24;28.47;33.21;;
43512;Laerm;34054;52.100;5.116;2023-07-31T02:45:33;30.29;28.05;33.52;;
43512;Laerm;34054;52.100;5.116;2023-07-31T02:46:05;30.24;28.26;32.93;;
43512;Laerm;34054;52.100;5.116;2023-07-31T02:46:36;30.17;27.93;32.51;;
43512;Laerm;34054;52.100;5.116;2023-07-31T02:47:07;30.13;27.83;31.96;;
43512;Laerm;34054;52.100;5.116;2023-07-31T02:47:39;30.08;27.85;31.78;;
43512;Laerm;34054;52.100;5.116;2023-07-31T02:48:11;30.09;28.17;31.71;;
43512;Laerm;34054;52.100;5.116;2023-07-31T02:48:42;30.17;28.15;32.90;;
43512;Laerm;34054;52.100;5.116;2023-07-31T02:49:13;30.40;28.47;34.65;;
43512;Laerm;34054;52.100;5.116;2023-07-31T02:49:45;30.10;28.11;33.89;;
43512;Laerm;34054;52.100;5.116;2023-07-31T02:50:16;30.09;28.04;31.71;;
43512;Laerm;34054;52.100;5.116;2023-07-31T02:50:48;30.25;28.17;31.78;;
43512;Laerm;34054;52.100;5.116;2023-07-31T02:51:19;30.33;28.09;32.49;;
43512;Laerm;34054;52.100;5.116;2023-07-31T02:51:52;30.60;28.25;32.58;;
43512;Laerm;34054;52.100;5.116;2023-07-31T02:52:23;30.25;28.10;31.88;;
43512;Laerm;34054;52.100;5.116;2023-07-31T02:52:54;30.21;28.18;32.38;;
43512;Laerm;34054;52.100;5.116;2023-07-31T02:53:25;30.23;28.19;32.07;;
43512;Laerm;34054;52.100;5.116;2023-07-31T02:53:58;30.45;28.33;32.96;;
43512;Laerm;34054;52.100;5.116;2023-07-31T02:54:29;30.47;28.50;36.78;;
43512;Laerm;34054;52.100;5.116;2023-07-31T02:55:00;30.23;28.37;31.99;;
43512;Laerm;34054;52.100;5.116;2023-07-31T02:55:32;30.26;28.10;31.98;;
43512;Laerm;34054;52.100;5.116;2023-07-31T02:56:04;31.65;28.28;45.52;;
43512;Laerm;34054;52.100;5.116;2023-07-31T02:56:35;30.25;28.19;34.16;;
43512;Laerm;34054;52.100;5.116;2023-07-31T02:57:06;30.40;28.14;33.81;;
43512;Laerm;34054;52.100;5.116;2023-07-31T02:57:39;30.45;28.69;32.61;;
43512;Laerm;34054;52.100;5.116;2023-07-31T02:58:11;30.36;28.02;40.82;;
43512;Laerm;34054;52.100;5.116;2023-07-31T02:58:43;30.28;28.10;33.22;;
43512;Laerm;34054;52.100;5.116;2023-07-31T02:59:14;30.27;28.14;33.41;;
43512;Laerm;34054;52.100;5.116;2023-07-31T02:59:45;30.22;28.17;32.44;;
43512;Laerm;34054;52.100;5.116;2023-07-31T03:00:18;30.62;28.35;35.59;;
43512;Laerm;34054;52.100;5.116;2023-07-31T03:00:49;30.27;28.33;31.95;;
43512;Laerm;34054;52.100;5.116;2023-07-31T03:01:21;30.36;28.09;33.43;;
43512;Laerm;34054;52.100;5.116;2023-07-31T03:01:52;30.36;28.23;43.08;;